Latest Weather Observations for Southern Cross Airport

IDW60801

Issued at 8:05 am WST Wednesday 26 November 2014 (issued every 30 minutes, with the page automatically refreshed every 10 minutes)

About weather observations | Map of weather stations | Latest weather observations for WA | Other Formats
Station Details ID: 012320 Name: SOUTHERN CROSS AIRFIELD Lat: -31.24 Lon: 119.36 Height: 347.4 m
Data from the previous 72 hours. | See also: Recent months at Southern Cross Airport
Date/Time
WST
Temp
°C
App
Temp
°C
Dew
Point
Rel
Hum
%
Delta-T
°C
Wind Press
QNH
hPa
Press
MSL
hPa
Rain
since 9 am
mm
Dir
 
Spd
km/h
Gust
km/h
Spd
kts
Gust
kts
26/08:00am 22.2 17.0 3.8 30 9.0 ENE 20 30 11 16 1017.8 1016.4 0.0
26/07:30am 21.9 16.9 3.6 30 8.9 ENE 19 26 10 14 1017.9 1016.5 0.0
26/07:00am 21.5 16.6 4.1 32 8.6 ENE 19 26 10 14 1017.7 1016.3 0.0
26/06:30am 21.6 15.8 4.2 32 8.6 ENE 24 32 13 17 1017.3 1016.0 0.0
26/06:00am 20.2 15.1 3.9 34 7.9 ENE 20 28 11 15 1016.9 1015.5 0.0
26/05:30am 19.5 14.3 3.6 35 7.7 ENE 20 30 11 16 1016.6 1015.2 0.0
26/05:00am 19.3 14.2 3.9 36 7.4 ENE 20 28 11 15 1016.4 1015.0 0.0
26/04:30am 19.0 14.2 4.4 38 7.1 E 19 26 10 14 1016.1 1014.7 0.0
26/04:00am 18.9 14.9 4.7 39 6.9 ENE 15 20 8 11 1016.4 1015.0 0.0
26/03:30am 19.2 15.2 4.9 39 7.0 E 15 22 8 12 1015.9 1014.5 0.0
26/03:00am 19.5 15.8 4.4 37 7.4 E 13 20 7 11 1016.0 1014.6 0.0
26/02:30am 20.0 16.2 3.7 34 7.9 E 13 20 7 11 1016.1 1014.7 0.0
26/02:00am 20.6 15.9 3.3 32 8.3 E 17 24 9 13 1016.1 1014.7 0.0
26/01:30am 21.4 17.0 2.6 29 9.0 E 15 22 8 12 1016.1 1014.7 0.0
26/01:00am 22.2 17.0 2.3 27 9.5 E 19 30 10 16 1016.2 1014.8 0.0
26/12:30am 22.9 17.1 2.4 26 9.9 E 22 32 12 17 1016.0 1014.6 0.0
26/12:00am 23.0 18.2 2.5 26 9.9 E 17 24 9 13 1016.5 1015.1 0.0
 
Date/Time
WST
Temp
°C
App
Temp
°C
Dew
Point
Rel
Hum
%
Delta-T
°C
Wind Press
QNH
hPa
Press
MSL
hPa
Rain
since 9 am
mm
Dir
 
Spd
km/h
Gust
km/h
Spd
kts
Gust
kts
25/11:30pm 23.4 18.0 2.3 25 10.2 E 20 30 11 16 1016.4 1015.0 0.0
25/11:00pm 24.0 17.8 2.2 24 10.5 E 24 37 13 20 1016.5 1015.1 0.0
25/10:30pm 24.5 18.8 2.6 24 10.7 E 22 35 12 19 1016.5 1015.1 0.0
25/10:00pm 25.2 19.5 2.6 23 11.1 E 22 33 12 18 1016.6 1015.2 0.0
25/09:30pm 25.6 19.5 2.9 23 11.3 E 24 33 13 18 1016.7 1015.3 0.0
25/09:00pm 26.1 20.0 2.7 22 11.6 E 24 32 13 17 1016.4 1015.0 0.0
25/08:30pm 26.9 20.8 2.7 21 12.1 E 24 37 13 20 1015.9 1014.5 0.0
25/08:00pm 27.4 22.5 1.8 19 12.6 E 17 20 9 11 1015.2 1013.8 0.0
25/07:30pm 28.1 23.3 -0.1 16 13.5 ESE 15 20 8 11 1014.9 1013.5 0.0
25/07:00pm 29.2 24.4 -0.1 15 14.1 E 15 20 8 11 1014.8 1013.3 0.0
25/06:30pm 30.4 24.6 -0.1 14 14.8 E 20 28 11 15 1014.7 1013.2 0.0
25/06:00pm 31.2 25.4 -1.5 12 15.6 E 19 26 10 14 1014.7 1013.2 0.0
25/05:30pm 31.7 27.1 -1.2 12 15.8 ENE 13 22 7 12 1014.8 1013.3 0.0
25/05:00pm 31.8 26.4 -1.1 12 15.9 NE 17 28 9 15 1014.7 1013.2 0.0
25/04:30pm 32.5 29.1 -1.7 11 16.4 NNE 6 15 3 8 1014.7 1013.2 0.0
25/04:00pm 32.7 27.3 -1.6 11 16.5 NE 17 20 9 11 1015.0 1013.6 0.0
25/03:30pm 32.5 27.1 -1.7 11 16.4 NNE 17 26 9 14 1015.3 1013.9 0.0
25/03:00pm 32.0 26.1 -2.1 11 16.2 ENE 19 28 10 15 1015.7 1014.3 0.0
25/02:30pm 31.8 25.7 -2.3 11 16.1 NNE 20 30 11 16 1015.9 1014.5 0.0
25/02:00pm 31.6 26.6 -1.2 12 15.8 E 15 24 8 13 1016.4 1015.0 0.0
25/01:30pm 31.5 27.0 -0.2 13 15.5 ESE 13 33 7 18 1016.6 1015.2 0.0
25/01:00pm 31.0 25.7 -0.6 13 15.3 E 17 26 9 14 1017.0 1015.6 0.0
25/12:30pm 30.2 25.1 0.7 15 14.5 E 17 26 9 14 1017.5 1016.2 0.0
25/12:00pm 29.5 24.2 1.9 17 13.8 ESE 19 28 10 15 1018.0 1016.6 0.0
25/11:30am 29.4 24.2 2.6 18 13.5 ENE 19 33 10 18 1018.6 1017.2 0.0
25/11:00am 28.1 23.6 4.4 22 12.2 NE 17 28 9 15 1019.1 1017.7 0.0
25/10:30am 26.6 21.9 5.0 25 11.2 NE 19 32 10 17 1019.6 1018.2 0.0
25/10:00am 25.4 21.1 5.1 27 10.4 NE 17 28 9 15 1020.1 1018.8 0.0
25/09:30am 24.5 19.7 5.8 30 9.7 NNE 20 28 11 15 1020.2 1018.9 0.0
25/09:00am 23.2 18.4 5.6 32 9.0 NE 20 30 11 16 1020.7 1019.3 0.0
25/08:30am 21.6 17.0 5.5 35 8.2 NE 19 26 10 14 1020.8 1019.4 0.0
25/08:00am 20.9 16.3 5.7 37 7.7 ENE 19 24 10 13 1020.9 1019.5 0.0
25/07:30am 19.2 14.5 6.0 42 6.6 E 20 28 11 15 1021.0 1019.6 0.0
25/07:00am 17.5 12.8 6.1 47 5.7 E 20 28 11 15 1020.9 1019.5 0.0
25/06:30am 16.0 11.9 6.2 52 4.8 E 17 26 9 14 1021.1 1019.7 0.0
25/06:00am 15.1 11.0 6.1 55 4.4 E 17 24 9 13 1020.8 1019.4 0.0
25/05:30am 14.4 11.5 6.3 58 4.0 ESE 11 15 6 8 1020.5 1019.2 0.0
25/05:00am 13.7 10.3 6.1 60 3.7 ESE 13 17 7 9 1020.2 1018.9 0.0
25/04:30am 13.8 11.2 6.2 60 3.7 ESE 9 15 5 8 1020.1 1018.8 0.0
25/04:00am 14.4 11.0 6.0 57 4.1 SE 13 17 7 9 1019.5 1018.1 0.0
25/03:30am 14.5 11.5 6.1 57 4.1 ESE 11 19 6 10 1019.3 1017.9 0.0
25/03:00am 14.8 10.3 5.9 55 4.3 ESE 19 26 10 14 1018.8 1017.4 0.0
25/02:30am 15.2 9.7 5.7 53 4.6 ESE 24 32 13 17 1018.7 1017.3 0.0
25/02:00am 15.6 10.3 5.2 50 5.0 ESE 22 32 12 17 1018.6 1017.2 0.0
25/01:30am 16.2 10.9 4.9 47 5.5 ESE 22 33 12 18 1018.8 1017.4 0.0
25/01:00am 17.1 11.2 3.8 41 6.3 ESE 24 32 13 17 1019.0 1017.6 0.0
25/12:30am 18.4 12.7 3.1 36 7.2 ESE 22 33 12 18 1019.1 1017.7 0.0
25/12:00am 19.0 13.6 2.4 33 7.8 ESE 20 32 11 17 1019.2 1017.8 0.0
 
Date/Time
WST
Temp
°C
App
Temp
°C
Dew
Point
Rel
Hum
%
Delta-T
°C
Wind Press
QNH
hPa
Press
MSL
hPa
Rain
since 9 am
mm
Dir
 
Spd
km/h
Gust
km/h
Spd
kts
Gust
kts
24/11:30pm 19.3 13.8 1.8 31 8.1 ESE 20 30 11 16 1019.4 1018.0 0.0
24/11:00pm 19.6 14.2 1.1 29 8.5 ESE 19 24 10 13 1019.5 1018.1 0.0
24/10:30pm 19.6 14.5 0.6 28 8.6 SE 17 19 9 10 1019.9 1018.6 0.0
24/10:00pm 20.9 15.8 0.7 26 9.3 E 17 20 9 11 1019.9 1018.6 0.0
24/09:30pm 22.2 16.6 0.1 23 10.1 E 19 26 10 14 1019.8 1018.4 0.0
24/09:00pm 22.8 17.1 -0.6 21 10.6 ESE 19 28 10 15 1019.6 1018.2 0.0
24/08:30pm 23.0 17.7 -0.5 21 10.7 ESE 17 20 9 11 1019.3 1017.9 0.0
24/08:00pm 23.3 18.3 -0.9 20 11.0 ESE 15 19 8 10 1019.0 1017.6 0.0
24/07:30pm 24.6 20.1 -0.5 19 11.6 ESE 13 19 7 10 1018.6 1017.2 0.0
24/07:00pm 25.7 20.4 -0.4 18 12.2 ESE 17 24 9 13 1018.3 1016.9 0.0
24/06:30pm 26.8 22.3 -0.3 17 12.8 E 13 20 7 11 1017.9 1016.5 0.0
24/06:00pm 27.4 22.6 0.2 17 13.0 E 15 20 8 11 1017.5 1016.2 0.0
24/05:30pm 27.6 22.1 0.4 17 13.1 E 19 24 10 13 1017.3 1016.0 0.0
24/05:00pm 28.1 23.8 0.8 17 13.2 SE 13 19 7 10 1017.1 1015.7 0.0
24/04:30pm 27.7 23.3 0.5 17 13.1 SSE 13 20 7 11 1017.0 1015.6 0.0
24/04:00pm 27.7 23.3 0.5 17 13.1 E 13 20 7 11 1017.2 1015.8 0.0
24/03:30pm 27.3 23.5 1.7 19 12.6 SE 11 22 6 12 1017.4 1016.1 0.0
24/03:00pm 27.3 23.1 1.7 19 12.5 E 13 22 7 12 1017.8 1016.4 0.0
24/02:30pm 28.0 23.9 2.2 19 12.8 ENE 13 26 7 14 1018.1 1016.7 0.0
24/02:00pm 26.3 22.6 2.3 21 11.8 E 11 28 6 15 1018.5 1017.1 0.0
24/01:30pm 26.3 22.0 3.5 23 11.5 E 15 22 8 12 1018.8 1017.4 0.0
24/01:00pm 25.8 22.5 4.3 25 10.9 NE 11 20 6 11 1019.4 1018.0 0.0
24/12:30pm 24.9 20.6 3.5 25 10.7 E 15 28 8 15 1019.8 1018.4 0.0
24/12:00pm 23.3 18.7 3.8 28 9.7 SSE 17 32 9 17 1020.2 1018.9 0.0
24/11:30am 22.9 20.1 5.3 32 9.0 E 9 11 5 6 1020.7 1019.3 0.0
24/11:00am 22.0 18.5 5.4 34 8.4 E 13 24 7 13 1021.2 1019.8 0.0
24/10:30am 20.8 16.5 5.2 36 7.8 ENE 17 24 9 13 1021.6 1020.2 0.0
24/10:00am 19.9 15.1 5.5 39 7.2 E 20 28 11 15 1021.9 1020.5 0.0
24/09:30am 19.4 14.9 6.2 42 6.7 E 19 26 10 14 1022.1 1020.7 0.0
24/09:00am 18.2 13.7 6.1 45 6.0 E 19 37 10 20 1022.4 1021.1 0.0
24/08:30am 16.9 11.8 5.8 48 5.5 E 22 28 12 15 1022.6 1021.3 0.0
24/08:00am 15.7 11.0 5.9 52 4.8 E 20 30 11 16 1022.7 1021.4 0.0
24/07:30am 14.7 9.6 6.0 56 4.2 E 22 32 12 17 1022.8 1021.5 0.0
24/07:00am 13.8 9.1 5.9 59 3.8 E 20 30 11 16 1022.7 1021.4 0.0
24/06:30am 12.9 8.2 6.0 63 3.3 ESE 20 28 11 15 1022.5 1021.2 0.0
24/06:00am 12.3 8.6 6.1 66 3.0 ESE 15 19 8 10 1022.1 1020.7 0.0
24/05:30am 11.4 8.8 5.9 69 2.6 ESE 9 17 5 9 1021.9 1020.5 0.0
24/05:00am 10.8 7.8 5.8 71 2.3 ESE 11 15 6 8 1021.5 1020.1 0.0
24/04:30am 11.0 7.9 5.7 70 2.5 ESE 11 15 6 8 1021.3 1019.9 0.0
24/04:00am 11.4 7.6 5.9 69 2.6 ESE 15 20 8 11 1020.8 1019.4 0.0
24/03:30am 11.7 7.5 5.8 67 2.8 ESE 17 22 9 12 1020.4 1019.1 0.0
24/03:00am 12.1 7.6 5.9 66 3.0 ESE 19 24 10 13 1020.4 1019.1 0.0
24/02:30am 12.4 7.7 6.0 65 3.1 SE 20 28 11 15 1020.3 1019.0 0.0
24/02:00am 12.8 7.3 5.9 63 3.3 SE 24 32 13 17 1020.0 1018.7 0.0
24/01:30am 13.3 7.4 5.7 60 3.6 SE 26 35 14 19 1019.8 1018.4 0.0
24/01:00am 13.8 7.9 5.9 59 3.8 SE 26 37 14 20 1019.6 1018.2 0.0
24/12:30am 14.0 7.0 5.9 58 3.9 SE 32 44 17 24 1019.5 1018.1 0.0
24/12:00am 14.6 7.5 6.4 58 4.0 SE 33 46 18 25 1019.4 1018.0 0.0
 
Date/Time
WST
Temp
°C
App
Temp
°C
Dew
Point
Rel
Hum
%
Delta-T
°C
Wind Press
QNH
hPa
Press
MSL
hPa
Rain
since 9 am
mm
Dir
 
Spd
km/h
Gust
km/h
Spd
kts
Gust
kts
23/11:30pm 15.8 8.9 6.5 54 4.6 SE 32 39 17 21 1019.0 1017.6 0.0
23/11:00pm 17.0 9.5 6.2 49 5.4 SE 35 43 19 23 1018.8 1017.4 0.0
23/10:30pm 18.7 11.2 4.5 39 6.9 SE 33 41 18 22 1018.4 1017.0 0.0
23/10:00pm 20.0 13.5 2.8 32 8.2 SSE 26 32 14 17 1017.8 1016.4 0.0
23/09:30pm 20.7 14.6 3.0 31 8.5 SSE 24 30 13 16 1017.5 1016.2 0.0
23/09:00pm 21.3 15.9 2.6 29 8.9 S 20 26 11 14 1017.3 1016.0 0.0
23/08:30pm 21.9 16.6 2.1 27 9.4 S 19 26 10 14 1016.8 1015.4 0.0
23/08:00pm 22.5 17.1 2.6 27 9.6 S 20 28 11 15 1016.4 1015.0 0.0
23/07:30pm 23.1 18.5 1.4 24 10.3 S 15 19 8 10 1016.0 1014.6 0.0
23/07:00pm 23.7 19.0 0.7 22 10.8 SSW 15 19 8 10 1015.6 1014.2 0.0
23/06:30pm 24.5 18.7 0.1 20 11.4 SW 20 28 11 15 1015.3 1013.9 0.0
23/06:00pm 25.5 19.4 0.2 19 11.9 SSW 22 32 12 17 1014.7 1013.2 0.0
23/05:30pm 25.9 19.7 -0.2 18 12.3 SW 22 30 12 16 1014.3 1012.9 0.0
23/05:00pm 26.3 20.3 -1.5 16 12.8 SW 20 32 11 17 1014.0 1012.6 0.0
23/04:30pm 26.5 20.8 0.3 18 12.5 W 20 30 11 16 1013.8 1012.4 0.0
23/04:00pm 26.0 20.8 -0.1 18 12.3 SSW 17 32 9 17 1013.9 1012.5 0.0
23/03:30pm 26.1 19.4 -0.8 17 12.5 SW 24 33 13 18 1013.9 1012.5 0.0
23/03:00pm 26.0 19.4 -0.1 18 12.3 SW 24 33 13 18 1014.1 1012.7 0.0
23/02:30pm 25.3 19.9 1.4 21 11.5 WSW 19 32 10 17 1014.2 1012.8 0.0
23/02:00pm 25.5 19.9 0.9 20 11.8 W 20 28 11 15 1014.3 1012.9 0.0
23/01:30pm 24.5 19.0 2.0 23 10.9 WSW 20 30 11 16 1014.5 1013.1 0.0
23/01:00pm 23.8 18.4 2.6 25 10.3 SW 20 32 11 17 1014.7 1013.2 0.0
23/12:30pm 24.2 18.0 2.4 24 10.6 SSW 24 32 13 17 1015.0 1013.6 0.0
23/12:00pm 23.4 18.2 2.3 25 10.2 W 19 24 10 13 1015.4 1014.0 0.0
23/11:30am 22.1 17.1 3.7 30 9.0 SW 19 32 10 17 1015.8 1014.4 0.0
23/11:00am 22.2 16.2 3.3 29 9.2 SSW 24 33 13 18 1016.0 1014.6 0.0
23/10:30am 20.5 16.6 3.3 32 8.3 SW 13 22 7 12 1016.3 1014.9 0.0
23/10:00am 20.3 14.4 3.9 34 8.0 SSE 24 30 13 16 1016.3 1014.9 0.0
23/09:30am 19.5 14.9 3.6 35 7.7 S 17 28 9 15 1016.6 1015.2 0.0
23/09:00am 18.8 12.5 3.8 37 7.2 SW 26 30 14 16 1016.7 1015.3 0.0
23/08:30am 17.8 12.5 5.1 43 6.2 S 22 32 12 17 1016.5 1015.1 0.0

Other Formats:

Comma delimited format used in spreadsheet applications
http://www.bom.gov.au/fwo/IDW60801/IDW60801.95634.axf

JavaScript Object Notation format (JSON) in row-major order
http://www.bom.gov.au/fwo/IDW60801/IDW60801.95634.json